Time;durP1;ratioP1;P1;durP2;ratioP2;P2;SDS_P1;SDS_P2;PMS_P1;PMS_P2;Temp;Humidity;BMP_temperature;BMP_pressure;BME280_temperature;BME280_humidity;BME280_pressure;Samples;Min_cycle;Max_cycle;Signal;HPM_P1;HPM_P2
2022/11/21 00:00:38;;;;;;;1.90;1.80;;;4.20;99.90;;;;;;5077154;28;20200;-82
2022/11/21 00:03:05;;;;;;;0.70;0.70;;;4.20;99.90;;;;;;5076442;28;20210;-82
2022/11/21 00:05:33;;;;;;;0.50;0.40;;;4.10;99.90;;;;;;5076428;28;20305;-82
2022/11/21 00:07:59;;;;;;;0.50;0.50;;;4.10;99.90;;;;;;5077501;28;20289;-82
2022/11/21 00:10:26;;;;;;;1.38;1.30;;;4.10;99.90;;;;;;5077664;28;20563;-82
2022/11/21 00:12:54;;;;;;;0.50;0.40;;;4.10;99.90;;;;;;5077234;28;20186;-80
2022/11/21 00:15:21;;;;;;;0.50;0.50;;;4.20;99.90;;;;;;5074792;28;20299;-83
2022/11/21 00:17:50;;;;;;;0.70;0.70;;;4.10;99.90;;;;;;5078019;28;20194;-79
2022/11/21 00:20:18;;;;;;;0.98;0.98;;;4.10;99.90;;;;;;5077340;28;20687;-82
2022/11/21 00:22:45;;;;;;;0.80;0.80;;;4.10;99.90;;;;;;5076889;28;20698;-81
2022/11/21 00:25:12;;;;;;;0.50;0.40;;;4.10;99.90;;;;;;5075958;28;20224;-81
2022/11/21 00:27:39;;;;;;;0.85;0.85;;;4.10;99.90;;;;;;5077605;28;20198;-81
2022/11/21 00:30:08;;;;;;;0.50;0.40;;;4.10;99.90;;;;;;5077262;28;20189;-82
2022/11/21 00:32:35;;;;;;;0.50;0.40;;;4.00;99.90;;;;;;5077391;28;20640;-82
2022/11/21 00:35:04;;;;;;;3.35;1.45;;;4.00;99.90;;;;;;5075937;28;20208;-81
2022/11/21 00:37:32;;;;;;;1.73;1.63;;;4.00;99.90;;;;;;5077553;28;20281;-82
2022/11/21 00:39:59;;;;;;;0.70;0.70;;;4.00;99.90;;;;;;5076597;28;20288;-82
2022/11/21 00:42:26;;;;;;;0.98;0.93;;;3.90;99.90;;;;;;5076844;28;20276;-82
2022/11/21 00:44:53;;;;;;;0.50;0.40;;;3.90;99.90;;;;;;5075815;28;20194;-82
2022/11/21 00:47:19;;;;;;;0.50;0.40;;;3.90;99.90;;;;;;5076482;28;20197;-82
2022/11/21 00:49:46;;;;;;;0.50;0.40;;;4.00;99.90;;;;;;5076623;28;20204;-82
2022/11/21 00:52:16;;;;;;;0.50;0.40;;;3.80;99.90;;;;;;5075448;28;20198;-82
2022/11/21 00:54:43;;;;;;;0.50;0.40;;;3.80;99.90;;;;;;5075301;28;20197;-82
2022/11/21 00:57:10;;;;;;;1.88;1.80;;;3.80;99.90;;;;;;5076202;28;20208;-83
2022/11/21 00:59:36;;;;;;;4.10;3.90;;;3.90;99.90;;;;;;5076598;28;20305;-82
2022/11/21 01:02:04;;;;;;;0.50;0.40;;;3.90;99.90;;;;;;5077086;28;20203;-82
2022/11/21 01:04:31;;;;;;;0.50;0.43;;;3.90;99.90;;;;;;5075543;28;20594;-83
2022/11/21 01:06:58;;;;;;;0.70;0.70;;;3.90;99.90;;;;;;5076195;28;20222;-80
2022/11/21 01:09:27;;;;;;;1.92;1.02;;;4.00;99.90;;;;;;5076848;28;20202;-83
2022/11/21 01:11:54;;;;;;;2.15;2.05;;;4.10;99.90;;;;;;5076778;28;20200;-79
2022/11/21 01:14:21;;;;;;;1.15;0.95;;;4.00;99.90;;;;;;5075112;28;20209;-82
2022/11/21 01:16:48;;;;;;;0.50;0.40;;;4.00;99.90;;;;;;5074881;28;20210;-81
2022/11/21 01:19:14;;;;;;;1.08;1.08;;;4.10;99.90;;;;;;5076577;28;20567;-81
2022/11/21 01:21:41;;;;;;;0.60;0.60;;;4.00;99.90;;;;;;5076753;28;20341;-82
2022/11/21 01:24:11;;;;;;;0.50;0.40;;;4.00;99.90;;;;;;5075282;28;20830;-82
2022/11/21 01:26:39;;;;;;;0.50;0.40;;;3.90;99.90;;;;;;5076409;28;20312;-81
2022/11/21 01:29:07;;;;;;;0.50;0.40;;;3.90;99.90;;;;;;5075877;28;20190;-82
2022/11/21 01:31:34;;;;;;;0.50;0.40;;;3.90;99.90;;;;;;5076260;28;20201;-82
2022/11/21 01:34:01;;;;;;;7.88;3.05;;;3.90;99.90;;;;;;5075117;28;20186;-82
2022/11/21 01:36:30;;;;;;;0.93;0.93;;;3.80;99.90;;;;;;5075601;28;20228;-82
2022/11/21 01:39:00;;;;;;;0.50;0.50;;;3.70;99.90;;;;;;5076752;28;20212;-82
2022/11/21 01:41:30;;;;;;;0.75;0.75;;;3.80;99.90;;;;;;5076423;28;20194;-80
2022/11/21 01:43:58;;;;;;;1.73;1.63;;;3.70;99.90;;;;;;5075280;28;20309;-80
2022/11/21 01:46:26;;;;;;;0.50;0.40;;;3.70;99.90;;;;;;5075852;28;20221;-81
2022/11/21 01:48:58;;;;;;;0.60;0.60;;;3.80;99.90;;;;;;5076034;28;20190;-82
2022/11/21 01:51:31;;;;;;;0.50;0.50;;;3.90;99.90;;;;;;5076278;28;20189;-82
2022/11/21 01:54:02;;;;;;;0.70;0.50;;;3.90;99.90;;;;;;5075310;28;20194;-79
2022/11/21 01:56:32;;;;;;;0.50;0.40;;;3.90;99.90;;;;;;5075932;28;20237;-81
2022/11/21 01:59:02;;;;;;;0.50;0.40;;;4.00;99.90;;;;;;5076125;28;20280;-82
2022/11/21 02:01:30;;;;;;;0.50;0.40;;;3.90;99.90;;;;;;5075948;28;20727;-81
2022/11/21 02:03:57;;;;;;;0.50;0.40;;;3.90;99.90;;;;;;5075128;28;20251;-81
2022/11/21 02:06:25;;;;;;;0.50;0.40;;;3.90;99.90;;;;;;5075486;28;20304;-81
2022/11/21 02:08:52;;;;;;;0.50;0.40;;;3.90;99.90;;;;;;5076277;28;20201;-80
2022/11/21 02:11:27;;;;;;;0.50;0.40;;;3.90;99.90;;;;;;5075616;28;20696;-81
2022/11/21 02:13:54;;;;;;;1.60;1.50;;;4.00;99.90;;;;;;5076182;28;20719;-78
2022/11/21 02:16:23;;;;;;;0.50;0.40;;;3.90;99.90;;;;;;5074956;28;20220;-81
2022/11/21 02:18:50;;;;;;;6.28;2.90;;;3.90;99.90;;;;;;5075899;28;20721;-80
2022/11/21 02:21:23;;;;;;;0.60;0.50;;;3.90;99.90;;;;;;5076031;28;20194;-81
2022/11/21 02:23:57;;;;;;;0.50;0.40;;;4.00;99.90;;;;;;5076174;28;20220;-81
2022/11/21 02:26:26;;;;;;;0.50;0.40;;;4.00;99.90;;;;;;5075772;28;20228;-81
2022/11/21 02:28:53;;;;;;;0.50;0.40;;;3.90;99.90;;;;;;5076372;28;20218;-80
2022/11/21 02:31:20;;;;;;;1.23;0.93;;;3.80;99.90;;;;;;5075539;28;20348;-82
2022/11/21 02:33:47;;;;;;;0.50;0.40;;;3.80;99.90;;;;;;5075451;28;20185;-80
2022/11/21 02:36:41;;;;;;;7.90;1.88;;;3.80;99.90;;;;;;5076029;28;20217;-81
2022/11/21 02:39:14;;;;;;;0.50;0.40;;;3.80;99.90;;;;;;5075203;28;20277;-81
2022/11/21 02:41:48;;;;;;;0.50;0.40;;;3.90;99.90;;;;;;5075553;28;20184;-82
2022/11/21 02:44:22;;;;;;;0.50;0.40;;;3.80;99.90;;;;;;5075337;28;20308;-82
2022/11/21 02:46:51;;;;;;;0.82;0.82;;;3.70;99.90;;;;;;5076609;28;20217;-80
2022/11/21 02:49:28;;;;;;;0.50;0.40;;;3.80;99.90;;;;;;5076376;28;20750;-81
2022/11/21 02:51:54;;;;;;;0.50;0.40;;;3.80;99.90;;;;;;5076201;28;20525;-79
2022/11/21 02:54:21;;;;;;;0.82;0.82;;;3.90;99.90;;;;;;5074325;28;20190;-81
2022/11/21 02:56:49;;;;;;;0.50;0.40;;;3.80;99.90;;;;;;5076558;28;20218;-80
2022/11/21 02:59:16;;;;;;;0.50;0.40;;;3.70;99.90;;;;;;5075892;28;20198;-81
2022/11/21 03:01:43;;;;;;;0.50;0.40;;;3.70;99.90;;;;;;5076180;28;20287;-82
2022/11/21 03:04:10;;;;;;;0.50;0.40;;;3.80;99.90;;;;;;5074879;28;20702;-82
2022/11/21 03:06:36;;;;;;;1.02;1.02;;;3.80;99.90;;;;;;5075507;28;20323;-80
2022/11/21 03:09:03;;;;;;;1.77;1.67;;;3.80;99.90;;;;;;5075209;28;20194;-81
2022/11/21 03:11:30;;;;;;;0.88;0.88;;;3.80;99.90;;;;;;5075605;28;20194;-82
2022/11/21 03:13:58;;;;;;;0.50;0.40;;;3.80;99.90;;;;;;5074470;28;20216;-81
2022/11/21 03:16:25;;;;;;;0.60;0.60;;;3.80;99.90;;;;;;5073728;28;20220;-81
2022/11/21 03:18:52;;;;;;;0.50;0.40;;;3.70;99.90;;;;;;5077971;28;20586;-79
2022/11/21 03:21:19;;;;;;;0.73;0.60;;;3.70;99.90;;;;;;5077082;28;20247;-82
2022/11/21 03:23:46;;;;;;;0.50;0.40;;;3.60;99.90;;;;;;5075954;28;20217;-80
2022/11/21 03:26:13;;;;;;;0.50;0.50;;;3.60;99.90;;;;;;5075251;28;20219;-82
2022/11/21 03:28:42;;;;;;;0.50;0.40;;;3.70;99.90;;;;;;5076139;28;20600;-80
2022/11/21 03:31:10;;;;;;;0.50;0.50;;;3.70;99.90;;;;;;5076090;28;20617;-81
2022/11/21 03:33:37;;;;;;;0.50;0.40;;;3.60;99.90;;;;;;5076509;28;20197;-82
2022/11/21 03:36:04;;;;;;;0.50;0.40;;;3.60;99.90;;;;;;5076186;28;20303;-82
2022/11/21 03:38:31;;;;;;;0.50;0.40;;;3.70;99.90;;;;;;5076543;28;20284;-82
2022/11/21 03:40:57;;;;;;;2.05;1.95;;;3.80;99.90;;;;;;5075172;28;20204;-80
2022/11/21 03:43:24;;;;;;;0.50;0.40;;;3.80;99.90;;;;;;5075405;28;20251;-81
2022/11/21 03:45:51;;;;;;;2.55;2.35;;;3.80;99.90;;;;;;5074669;28;20221;-81
2022/11/21 03:48:19;;;;;;;0.50;0.40;;;3.70;99.90;;;;;;5075827;28;20190;-81
2022/11/21 03:50:46;;;;;;;0.50;0.40;;;3.60;99.90;;;;;;5075625;28;20204;-81
2022/11/21 03:53:13;;;;;;;0.50;0.40;;;3.60;99.90;;;;;;5075996;28;20197;-81
2022/11/21 03:55:42;;;;;;;1.95;1.85;;;3.60;99.90;;;;;;5074384;28;20222;-81
2022/11/21 03:58:09;;;;;;;1.20;1.20;;;3.60;99.90;;;;;;5076484;28;20198;-82
2022/11/21 04:00:36;;;;;;;0.50;0.40;;;3.60;99.90;;;;;;5075666;28;20201;-81
2022/11/21 04:03:03;;;;;;;0.50;0.40;;;3.60;99.90;;;;;;5075652;28;20205;-81
2022/11/21 04:05:31;;;;;;;0.50;0.40;;;3.50;99.90;;;;;;5075379;28;20220;-82
2022/11/21 04:07:58;;;;;;;0.50;0.40;;;3.50;99.90;;;;;;5076314;28;20200;-81
2022/11/21 04:10:24;;;;;;;0.50;0.40;;;3.60;99.90;;;;;;5076390;28;20265;-81
2022/11/21 04:12:51;;;;;;;0.50;0.40;;;3.60;99.90;;;;;;5076487;28;20283;-82
2022/11/21 04:15:18;;;;;;;0.50;0.40;;;3.60;99.90;;;;;;5074468;28;20210;-82
2022/11/21 04:17:45;;;;;;;0.50;0.40;;;3.60;99.90;;;;;;5075862;28;20699;-82
2022/11/21 04:20:12;;;;;;;0.50;0.50;;;3.70;99.90;;;;;;5075825;28;20289;-82
2022/11/21 04:22:40;;;;;;;0.50;0.50;;;3.70;99.90;;;;;;5075056;28;20208;-81
2022/11/21 04:25:07;;;;;;;0.85;0.82;;;3.80;99.90;;;;;;5071341;28;20221;-81
2022/11/21 04:27:34;;;;;;;0.88;0.88;;;3.80;99.90;;;;;;5075436;28;20563;-81
2022/11/21 04:30:01;;;;;;;1.63;1.52;;;3.80;99.90;;;;;;5076666;28;20194;-81
2022/11/21 04:32:28;;;;;;;0.50;0.40;;;3.80;99.90;;;;;;5077940;28;20198;-82
2022/11/21 04:34:55;;;;;;;0.98;0.98;;;3.80;99.90;;;;;;5076077;28;20186;-81
2022/11/21 04:37:21;;;;;;;0.50;0.45;;;3.80;99.90;;;;;;5076909;28;20204;-80
2022/11/21 04:39:50;;;;;;;0.50;0.40;;;3.80;99.90;;;;;;5076795;28;20197;-81
2022/11/21 04:42:16;;;;;;;1.33;1.23;;;3.90;99.90;;;;;;5078475;28;20192;-82
2022/11/21 04:44:43;;;;;;;3.75;1.20;;;3.90;99.90;;;;;;5081749;28;20210;-82
2022/11/21 04:47:10;;;;;;;1.92;1.83;;;3.90;99.90;;;;;;5080153;28;20214;-82
2022/11/21 04:49:37;;;;;;;1.70;1.60;;;3.90;99.90;;;;;;5081119;28;20194;-82
2022/11/21 04:52:04;;;;;;;0.50;0.40;;;3.90;99.90;;;;;;5081147;28;20233;-81
2022/11/21 04:54:30;;;;;;;0.60;0.60;;;3.90;99.90;;;;;;5081374;28;20196;-82
2022/11/21 04:56:59;;;;;;;0.50;0.40;;;3.90;99.90;;;;;;5081823;28;20226;-81
2022/11/21 04:59:25;;;;;;;0.60;0.60;;;4.00;99.90;;;;;;5084336;28;20257;-82
2022/11/21 05:01:52;;;;;;;1.05;1.05;;;4.00;99.90;;;;;;5085037;28;20288;-81
2022/11/21 05:04:19;;;;;;;0.50;0.40;;;4.00;99.90;;;;;;5082727;28;20252;-82
2022/11/21 05:06:46;;;;;;;1.90;1.83;;;4.00;99.90;;;;;;5079496;28;20216;-81
2022/11/21 05:09:12;;;;;;;2.72;2.53;;;4.00;99.90;;;;;;5077726;28;20198;-80
2022/11/21 05:14:26;;;;;;;0.50;0.40;;;4.00;99.90;;;;;;5079098;28;20571;-80
2022/11/21 05:16:53;;;;;;;0.95;0.95;;;4.00;99.90;;;;;;5077505;28;20312;-83
2022/11/21 05:19:20;;;;;;;1.40;1.35;;;3.90;99.90;;;;;;5076876;28;20190;-82
2022/11/21 05:21:46;;;;;;;0.50;0.50;;;3.90;99.90;;;;;;5075939;28;20193;-80
2022/11/21 05:24:13;;;;;;;0.50;0.40;;;3.90;99.90;;;;;;5074452;28;20214;-81
2022/11/21 05:26:40;;;;;;;1.35;1.27;;;3.80;99.90;;;;;;5074962;28;20221;-81
2022/11/21 05:29:07;;;;;;;0.60;0.57;;;3.90;99.90;;;;;;5075978;28;20289;-81
2022/11/21 05:31:35;;;;;;;1.73;1.50;;;3.90;99.90;;;;;;5077022;28;20199;-82
2022/11/21 05:34:01;;;;;;;0.50;0.50;;;3.90;99.90;;;;;;5075378;28;20186;-80
2022/11/21 05:36:28;;;;;;;2.63;2.53;;;4.00;99.90;;;;;;5076373;28;20216;-81
2022/11/21 05:38:55;;;;;;;6.18;3.05;;;4.00;99.90;;;;;;5075492;28;20709;-80
2022/11/21 05:41:22;;;;;;;0.60;0.40;;;4.00;99.90;;;;;;5075994;28;20332;-82
2022/11/21 05:43:48;;;;;;;0.70;0.70;;;3.90;99.90;;;;;;5075782;28;20190;-82
2022/11/21 05:46:17;;;;;;;0.50;0.50;;;4.00;99.90;;;;;;5076090;28;20288;-80
2022/11/21 05:48:45;;;;;;;0.60;0.60;;;4.00;99.90;;;;;;5073285;28;20285;-81
2022/11/21 05:51:13;;;;;;;0.60;0.40;;;4.00;99.90;;;;;;5075593;28;20198;-80
2022/11/21 05:53:39;;;;;;;14.48;13.10;;;4.00;99.90;;;;;;5074625;28;20584;-81
2022/11/21 05:56:08;;;;;;;2.60;2.40;;;4.00;99.90;;;;;;5074133;28;20218;-82
2022/11/21 05:58:36;;;;;;;0.50;0.40;;;3.90;99.90;;;;;;5074954;28;20204;-81
2022/11/21 06:01:04;;;;;;;0.50;0.40;;;4.00;99.90;;;;;;5074974;28;20671;-80
2022/11/21 06:03:31;;;;;;;0.50;0.40;;;4.00;99.90;;;;;;5074683;28;20600;-81
2022/11/21 06:06:02;;;;;;;0.50;0.40;;;4.00;99.90;;;;;;5073142;28;20241;-81
2022/11/21 06:08:31;;;;;;;0.50;0.40;;;4.00;99.90;;;;;;5074533;28;20185;-81
2022/11/21 06:10:57;;;;;;;5.05;2.08;;;4.10;99.90;;;;;;5075401;28;20198;-81
2022/11/21 06:13:24;;;;;;;1.55;1.45;;;4.10;99.90;;;;;;5076854;28;20193;-82
2022/11/21 06:15:53;;;;;;;2.28;2.15;;;4.20;99.90;;;;;;5075796;28;20214;-79
2022/11/21 06:18:20;;;;;;;0.50;0.40;;;4.20;99.90;;;;;;5074369;28;20190;-80
2022/11/21 06:20:47;;;;;;;1.40;1.15;;;4.10;99.90;;;;;;5073882;28;20189;-81
2022/11/21 06:23:15;;;;;;;0.50;0.40;;;4.10;99.90;;;;;;5075037;28;20198;-79
2022/11/21 06:25:43;;;;;;;0.50;0.40;;;4.10;99.90;;;;;;5073598;28;20225;-80
2022/11/21 06:28:10;;;;;;;0.60;0.40;;;4.10;99.90;;;;;;5074834;28;20186;-79
2022/11/21 06:30:37;;;;;;;0.95;0.95;;;4.00;99.90;;;;;;5074036;28;20209;-81
2022/11/21 06:33:05;;;;;;;0.50;0.40;;;4.00;99.90;;;;;;5074009;28;20190;-81
2022/11/21 06:35:32;;;;;;;0.50;0.40;;;4.00;99.90;;;;;;5073410;28;20758;-80
2022/11/21 06:37:59;;;;;;;0.50;0.40;;;4.00;99.90;;;;;;5073895;28;20207;-81
2022/11/21 06:40:27;;;;;;;0.50;0.40;;;4.00;99.90;;;;;;5073810;28;20190;-79
2022/11/21 06:42:54;;;;;;;0.50;0.40;;;4.00;99.90;;;;;;5074521;28;20190;-81
2022/11/21 06:45:21;;;;;;;1.25;1.15;;;4.10;99.90;;;;;;5073069;28;20228;-80
2022/11/21 06:47:47;;;;;;;1.67;1.58;;;4.10;99.90;;;;;;5073450;28;20525;-81
2022/11/21 06:50:14;;;;;;;0.55;0.47;;;4.10;99.90;;;;;;5064209;28;20198;-80
2022/11/21 06:52:41;;;;;;;0.50;0.40;;;4.10;99.90;;;;;;5074195;28;20219;-80
2022/11/21 06:55:09;;;;;;;0.50;0.40;;;4.20;99.90;;;;;;5072027;28;20218;-81
2022/11/21 06:57:37;;;;;;;1.73;1.63;;;4.20;99.90;;;;;;5081707;28;20349;-82
2022/11/21 07:00:05;;;;;;;0.80;0.80;;;4.20;99.90;;;;;;5093120;28;20192;-81
2022/11/21 07:02:32;;;;;;;0.50;0.40;;;4.20;99.90;;;;;;5080544;28;20277;-81
2022/11/21 07:04:58;;;;;;;1.40;1.30;;;4.20;99.90;;;;;;5075442;28;20210;-81
2022/11/21 07:07:25;;;;;;;2.08;1.98;;;4.20;99.90;;;;;;5075291;28;20196;-80
2022/11/21 07:09:52;;;;;;;3.80;3.17;;;4.20;99.90;;;;;;5074960;28;20226;-80
2022/11/21 07:15:13;;;;;;;0.50;0.40;;;4.10;99.90;;;;;;5026289;28;20205;-79
2022/11/21 07:17:40;;;;;;;0.90;0.90;;;4.10;99.90;;;;;;5073966;28;20685;-80
2022/11/21 07:20:08;;;;;;;6.10;3.42;;;4.10;99.90;;;;;;5073881;28;20217;-80
2022/11/21 07:22:35;;;;;;;1.02;1.02;;;4.10;99.90;;;;;;5073764;28;20201;-80
2022/11/21 07:25:02;;;;;;;0.50;0.40;;;4.20;99.90;;;;;;5072405;28;20309;-81
2022/11/21 07:27:28;;;;;;;0.50;0.40;;;4.20;99.90;;;;;;5072914;28;20184;-80
2022/11/21 07:29:57;;;;;;;0.73;0.70;;;4.30;99.90;;;;;;5073771;28;20193;-78
2022/11/21 07:32:26;;;;;;;8.40;2.97;;;4.30;99.90;;;;;;5073844;28;20229;-80
2022/11/21 07:34:52;;;;;;;1.13;1.00;;;4.30;99.90;;;;;;5071754;28;20198;-81
2022/11/21 07:37:19;;;;;;;6.60;3.60;;;4.30;99.90;;;;;;5073201;28;20200;-80
2022/11/21 07:39:46;;;;;;;2.88;2.78;;;4.40;99.90;;;;;;5073138;28;20200;-80
2022/11/21 07:42:13;;;;;;;0.50;0.40;;;4.40;99.90;;;;;;5073611;28;20201;-80
2022/11/21 07:44:39;;;;;;;0.50;0.40;;;4.40;99.90;;;;;;5072120;28;20233;-81
2022/11/21 07:47:06;;;;;;;0.50;0.40;;;4.40;99.90;;;;;;5073997;28;20210;-77
2022/11/21 07:49:34;;;;;;;0.50;0.40;;;4.40;99.90;;;;;;5072865;28;20193;-82
2022/11/21 07:52:01;;;;;;;0.50;0.45;;;4.50;99.90;;;;;;5073324;28;20591;-81
2022/11/21 07:54:28;;;;;;;0.50;0.40;;;4.60;99.90;;;;;;5072156;28;20286;-80
2022/11/21 07:56:55;;;;;;;1.15;1.05;;;4.60;99.90;;;;;;5072097;28;20344;-80
2022/11/21 07:59:22;;;;;;;1.67;1.63;;;4.60;99.90;;;;;;5072969;28;20289;-80
2022/11/21 08:01:50;;;;;;;0.50;0.40;;;4.70;99.90;;;;;;5074972;28;20535;-81
2022/11/21 08:04:18;;;;;;;10.00;9.10;;;4.70;99.90;;;;;;5075927;28;20216;-81
2022/11/21 08:06:46;;;;;;;0.70;0.70;;;4.70;99.90;;;;;;5077307;28;20214;-80
2022/11/21 08:09:13;;;;;;;0.60;0.40;;;4.70;99.90;;;;;;5076642;28;20202;-81
2022/11/21 08:11:39;;;;;;;0.50;0.40;;;4.70;99.90;;;;;;5076821;28;20194;-78
2022/11/21 08:14:06;;;;;;;0.50;0.40;;;4.80;99.90;;;;;;5075722;28;20206;-80
2022/11/21 08:16:33;;;;;;;0.95;0.95;;;4.80;99.90;;;;;;5077226;28;20579;-81
2022/11/21 08:19:00;;;;;;;0.50;0.40;;;4.80;99.90;;;;;;5076565;28;20200;-81
2022/11/21 08:21:27;;;;;;;0.50;0.40;;;4.80;99.90;;;;;;5077000;28;20194;-81
2022/11/21 08:23:55;;;;;;;0.50;0.40;;;4.80;99.90;;;;;;5076367;28;20575;-78
2022/11/21 08:26:22;;;;;;;10.10;9.60;;;4.80;99.90;;;;;;5076324;28;20607;-81
2022/11/21 08:28:48;;;;;;;0.50;0.40;;;4.90;99.90;;;;;;5076597;28;20196;-80
2022/11/21 08:31:15;;;;;;;0.50;0.43;;;4.90;99.90;;;;;;5076553;28;20558;-79
2022/11/21 08:33:42;;;;;;;0.50;0.40;;;4.90;99.90;;;;;;5076491;28;20201;-81
2022/11/21 08:36:09;;;;;;;0.65;0.65;;;5.00;99.90;;;;;;5075131;28;20209;-81
2022/11/21 08:38:36;;;;;;;0.50;0.40;;;5.10;99.90;;;;;;5075571;28;20281;-80
2022/11/21 08:43:49;;;;;;;0.50;0.40;;;5.10;99.90;;;;;;5075697;28;20180;-80
2022/11/21 08:46:17;;;;;;;0.50;0.40;;;5.20;99.90;;;;;;5075283;28;20221;-81
2022/11/21 08:48:43;;;;;;;0.50;0.43;;;5.20;99.90;;;;;;5075788;28;20280;-80
2022/11/21 08:51:10;;;;;;;0.50;0.40;;;5.20;99.90;;;;;;5076880;28;20194;-80
2022/11/21 08:53:37;;;;;;;0.50;0.40;;;5.30;99.90;;;;;;5075705;28;20292;-81
2022/11/21 08:56:05;;;;;;;1.05;1.05;;;5.40;99.90;;;;;;5073746;28;20218;-81
2022/11/21 08:58:32;;;;;;;0.50;0.40;;;5.40;99.90;;;;;;5076416;28;20205;-80
2022/11/21 09:00:59;;;;;;;1.73;1.67;;;5.40;99.90;;;;;;5075219;28;20201;-79
2022/11/21 09:03:26;;;;;;;0.50;0.50;;;5.50;99.90;;;;;;5075792;28;20197;-80
2022/11/21 09:05:55;;;;;;;0.50;0.40;;;5.40;99.90;;;;;;5080316;28;20292;-80
2022/11/21 09:08:22;;;;;;;0.50;0.40;;;5.40;99.90;;;;;;5084047;28;20198;-80
2022/11/21 09:10:49;;;;;;;0.50;0.40;;;5.50;99.90;;;;;;5079628;28;20349;-80
2022/11/21 09:13:17;;;;;;;0.50;0.40;;;5.50;99.90;;;;;;5081112;28;20751;-80
2022/11/21 09:18:29;;;;;;;0.50;0.40;;;5.60;99.90;;;;;;5076014;28;20197;-80
2022/11/21 09:20:55;;;;;;;0.95;0.95;;;5.60;99.90;;;;;;5075743;28;20193;-80
2022/11/21 09:23:22;;;;;;;0.60;0.60;;;5.70;99.90;;;;;;5075587;28;20289;-80
2022/11/21 09:25:49;;;;;;;0.50;0.50;;;5.70;99.90;;;;;;5074460;28;20238;-78
2022/11/21 09:28:17;;;;;;;0.50;0.40;;;5.80;99.90;;;;;;5075540;28;20194;-78
2022/11/21 09:30:44;;;;;;;0.70;0.70;;;5.90;99.90;;;;;;5076660;28;20195;-79
2022/11/21 09:33:13;;;;;;;3.08;2.88;;;5.90;99.90;;;;;;5077441;28;20210;-80
2022/11/21 09:35:40;;;;;;;0.93;0.93;;;5.90;99.90;;;;;;5075338;28;20304;-78
2022/11/21 09:38:07;;;;;;;0.90;0.90;;;6.00;99.90;;;;;;5077013;28;20194;-80
2022/11/21 09:40:35;;;;;;;1.25;1.20;;;6.10;99.90;;;;;;5078358;28;20283;-80
2022/11/21 09:43:41;;;;;;;0.50;0.40;;;6.10;99.90;;;;;;5077545;28;20216;-80
2022/11/21 09:46:12;;;;;;;4.10;1.48;;;6.20;99.90;;;;;;5074201;28;20631;-81
2022/11/21 09:48:47;;;;;;;4.40;2.72;;;6.20;99.90;;;;;;5074554;28;20552;-80
2022/11/21 09:51:16;;;;;;;4.32;4.00;;;6.30;99.90;;;;;;5075110;28;20275;-80
2022/11/21 09:53:52;;;;;;;0.80;0.77;;;6.30;99.90;;;;;;5074661;28;20289;-79
2022/11/21 09:56:22;;;;;;;1.50;1.40;;;6.30;99.90;;;;;;5073458;28;20763;-80
2022/11/21 09:59:06;;;;;;;0.50;0.40;;;6.30;99.90;;;;;;5074154;28;20252;-79
2022/11/21 10:01:33;;;;;;;2.03;1.92;;;6.40;99.90;;;;;;5074414;28;20177;-80
2022/11/21 10:04:02;;;;;;;4.53;3.17;;;6.40;99.90;;;;;;5073219;28;20663;-80
2022/11/21 10:06:31;;;;;;;1.48;1.38;;;6.40;99.90;;;;;;5074453;28;20213;-80
2022/11/21 10:09:07;;;;;;;0.50;0.40;;;6.40;99.90;;;;;;5074816;28;20201;-80
2022/11/21 10:14:43;;;;;;;0.50;0.40;;;6.60;99.90;;;;;;5072928;28;20221;-80
2022/11/21 10:17:18;;;;;;;0.50;0.40;;;6.60;99.90;;;;;;5073712;28;20212;-80
2022/11/21 10:20:12;;;;;;;0.50;0.40;;;6.80;99.90;;;;;;5074460;28;20184;-80
2022/11/21 10:23:00;;;;;;;0.60;0.60;;;7.00;99.90;;;;;;5074911;28;20548;-79
2022/11/21 10:25:31;;;;;;;0.50;0.40;;;7.20;99.90;;;;;;5072988;28;20312;-79
2022/11/21 10:28:05;;;;;;;0.50;0.40;;;7.20;99.90;;;;;;5074362;28;20201;-79
2022/11/21 10:30:34;;;;;;;7.30;1.60;;;7.20;99.90;;;;;;5074180;28;20662;-79
2022/11/21 10:33:04;;;;;;;2.45;2.25;;;7.20;99.90;;;;;;5073958;28;20256;-77
2022/11/21 10:35:38;;;;;;;1.60;1.50;;;7.10;99.90;;;;;;5073627;28;20208;-80
2022/11/21 10:38:19;;;;;;;6.53;5.50;;;7.10;99.90;;;;;;5073946;28;20724;-79
2022/11/21 10:40:49;;;;;;;0.50;0.50;;;7.10;99.90;;;;;;5074539;28;20207;-80
2022/11/21 10:46:11;;;;;;;0.80;0.63;;;7.20;99.90;;;;;;5076895;28;20288;-79
2022/11/21 10:48:38;;;;;;;8.43;3.53;;;7.20;99.90;;;;;;5074320;28;20201;-80
2022/11/21 10:51:25;;;;;;;0.50;0.40;;;7.30;99.90;;;;;;5074606;28;20207;-80
2022/11/21 10:56:49;;;;;;;4.10;3.15;;;7.90;99.90;;;;;;5073155;28;20259;-80
2022/11/21 10:59:24;;;;;;;3.42;2.25;;;7.90;99.90;;;;;;5074370;28;20287;-80
2022/11/21 11:01:57;;;;;;;4.35;2.20;;;7.90;99.90;;;;;;5074319;28;20182;-79
2022/11/21 11:04:25;;;;;;;4.35;3.30;;;7.90;99.90;;;;;;5073452;28;20292;-79
2022/11/21 11:06:52;;;;;;;4.20;2.97;;;7.60;99.90;;;;;;5075131;28;20217;-76
2022/11/21 11:09:28;;;;;;;0.60;0.60;;;7.60;99.90;;;;;;5074688;28;20224;-79
2022/11/21 11:12:19;;;;;;;1.25;1.15;;;7.70;99.90;;;;;;5079002;28;20174;-79
2022/11/21 11:14:51;;;;;;;3.83;3.25;;;7.80;99.90;;;;;;5084358;28;20214;-79
2022/11/21 11:17:26;;;;;;;0.60;0.60;;;8.00;99.90;;;;;;5076678;28;20197;-80
2022/11/21 11:20:01;;;;;;;5.50;3.20;;;8.10;99.90;;;;;;5075699;28;20284;-80
2022/11/21 11:22:30;;;;;;;7.53;4.05;;;8.10;99.90;;;;;;5074164;28;20193;-79
2022/11/21 11:24:57;;;;;;;5.30;2.97;;;7.90;99.90;;;;;;5073463;28;20296;-79
2022/11/21 11:27:27;;;;;;;0.50;0.50;;;7.80;99.90;;;;;;5074108;28;20211;-79
2022/11/21 11:29:54;;;;;;;1.83;1.73;;;7.90;99.90;;;;;;5074461;28;20525;-80
2022/11/21 11:32:23;;;;;;;0.50;0.40;;;7.80;99.90;;;;;;5074567;28;20201;-79
2022/11/21 11:34:57;;;;;;;6.28;3.65;;;7.80;99.90;;;;;;5073048;28;20288;-77
2022/11/21 11:37:34;;;;;;;0.50;0.50;;;7.80;99.90;;;;;;5079298;28;20174;-80
2022/11/21 11:40:14;;;;;;;1.63;1.52;;;7.90;99.90;;;;;;5081258;28;20195;-79
2022/11/21 11:49:02;;;;;;;3.00;2.80;;;7.60;99.90;;;;;;5080194;28;20171;-76
2022/11/21 11:51:37;;;;;;;1.23;0.93;;;7.50;99.90;;;;;;5079816;28;20181;-80
2022/11/21 11:54:11;;;;;;;0.50;0.40;;;7.50;99.90;;;;;;5079314;28;20204;-78
2022/11/21 11:56:38;;;;;;;6.25;3.33;;;7.80;99.90;;;;;;5079019;28;20209;-79
2022/11/21 11:59:12;;;;;;;3.03;2.83;;;8.00;99.90;;;;;;5080117;28;20197;-80
2022/11/21 12:01:43;;;;;;;4.13;3.65;;;8.00;99.90;;;;;;5080304;28;20193;-79
2022/11/21 12:04:15;;;;;;;0.50;0.40;;;8.00;99.90;;;;;;5079368;28;20230;-79
2022/11/21 12:06:48;;;;;;;1.27;1.27;;;7.90;99.90;;;;;;5080344;28;20243;-79
2022/11/21 12:09:23;;;;;;;0.50;0.50;;;8.00;99.90;;;;;;5080406;28;20214;-79
2022/11/21 12:12:06;;;;;;;0.60;0.50;;;8.10;99.90;;;;;;5080789;28;20181;-79
2022/11/21 12:17:35;;;;;;;0.50;0.40;;;8.30;99.90;;;;;;5099127;28;20200;-79
2022/11/21 12:20:13;;;;;;;1.35;1.25;;;8.30;99.90;;;;;;5094765;28;20272;-81
2022/11/21 12:22:40;;;;;;;0.65;0.65;;;8.40;99.90;;;;;;5088800;28;20291;-79
2022/11/21 12:25:11;;;;;;;2.13;1.95;;;8.40;99.90;;;;;;5078885;28;20214;-78
2022/11/21 12:27:41;;;;;;;0.50;0.40;;;8.30;99.90;;;;;;5084237;28;20261;-80
2022/11/21 12:30:43;;;;;;;0.50;0.50;;;8.30;99.90;;;;;;5101014;28;20178;-79
2022/11/21 12:33:18;;;;;;;0.50;0.40;;;8.60;99.90;;;;;;5100695;28;20197;-79
2022/11/21 12:36:24;;;;;;;0.60;0.60;;;8.70;99.90;;;;;;5099729;28;20746;-80
2022/11/21 12:39:10;;;;;;;0.50;0.40;;;8.80;99.90;;;;;;5101160;28;20189;-80
2022/11/21 12:44:41;;;;;;;1.15;0.63;;;9.00;99.90;;;;;;5100831;28;20193;-80
2022/11/21 12:47:25;;;;;;;1.13;1.02;;;9.20;99.90;;;;;;5100568;28;20209;-80
2022/11/21 12:55:39;;;;;;;0.50;0.40;;;9.10;99.90;;;;;;5088669;28;20204;-81
2022/11/21 12:58:19;;;;;;;0.50;0.40;;;9.10;99.90;;;;;;5097210;28;20181;-80
2022/11/21 13:00:58;;;;;;;1.40;1.30;;;9.10;99.90;;;;;;5097470;28;20189;-81
2022/11/21 13:03:55;;;;;;;1.35;1.05;;;9.10;99.90;;;;;;5095327;28;20171;-80
2022/11/21 13:06:25;;;;;;;1.80;1.70;;;9.00;99.90;;;;;;5093324;28;20217;-79
2022/11/21 13:08:55;;;;;;;0.50;0.50;;;8.80;99.90;;;;;;5078397;28;20806;-79
2022/11/21 13:14:24;;;;;;;0.50;0.40;;;8.60;99.90;;;;;;5077841;28;20244;-79
2022/11/21 13:17:02;;;;;;;0.50;0.40;;;8.50;99.90;;;;;;5080244;28;20306;-80
2022/11/21 13:19:36;;;;;;;0.50;0.50;;;8.50;99.90;;;;;;5081369;28;20178;-78
2022/11/21 13:22:03;;;;;;;1.05;1.05;;;8.40;99.90;;;;;;5088222;28;20778;-78
2022/11/21 13:24:58;;;;;;;0.50;0.50;;;8.40;99.90;;;;;;5086369;28;20213;-80
2022/11/21 13:27:32;;;;;;;0.50;0.40;;;8.40;99.90;;;;;;5084688;28;20290;-80
2022/11/21 13:30:17;;;;;;;0.50;0.40;;;8.40;99.90;;;;;;5079043;28;20197;-78
2022/11/21 13:32:45;;;;;;;1.50;0.65;;;8.40;99.90;;;;;;5077217;28;20265;-80
2022/11/21 13:35:46;;;;;;;0.50;0.50;;;8.30;99.90;;;;;;5068032;28;20241;-80
2022/11/21 13:38:12;;;;;;;0.93;0.93;;;8.40;99.90;;;;;;5073577;28;20221;-80
2022/11/21 13:42:56;;;;;;;0.60;0.50;;;8.30;99.90;;;;;;5076852;28;20567;-80
2022/11/21 13:43:29;;;;;;;0.50;0.40;;;8.30;99.90;;;;;;5077022;28;20201;-79
2022/11/21 13:45:58;;;;;;;0.50;0.40;;;8.20;99.90;;;;;;5075731;28;20241;-80
2022/11/21 13:48:52;;;;;;;0.50;0.40;;;8.30;99.90;;;;;;5075538;28;20197;-80
2022/11/21 13:51:48;;;;;;;0.60;0.60;;;8.30;99.90;;;;;;5075806;28;20188;-79